createdAt,value
2023-04-24T04:17:28.107Z,978.69
2023-04-24T04:18:28.000Z,978.65
2023-04-24T04:19:27.922Z,978.65
2023-04-24T04:20:27.856Z,978.75
2023-04-24T04:21:27.760Z,978.77
2023-04-24T04:22:27.679Z,978.77
2023-04-24T04:23:27.604Z,978.77
2023-04-24T04:24:27.580Z,978.78
2023-04-24T04:25:27.434Z,978.85
2023-04-24T04:26:27.354Z,978.84
2023-04-24T04:27:27.371Z,978.81
2023-04-24T04:28:27.185Z,978.87
2023-04-24T04:29:27.108Z,978.88
2023-04-24T04:30:27.030Z,978.84
2023-04-24T04:32:09.579Z,978.84
2023-04-24T04:33:09.588Z,978.86
2023-04-24T04:34:09.364Z,978.84
2023-04-24T04:35:09.679Z,978.85
2023-04-24T04:36:09.245Z,978.88
2023-04-24T04:37:09.114Z,978.89
2023-04-24T04:38:09.035Z,978.97
2023-04-24T04:39:08.956Z,978.91
2023-04-24T04:40:08.878Z,978.97
2023-04-24T04:41:08.800Z,978.93
2023-04-24T04:42:08.709Z,978.96
2023-04-24T04:43:08.632Z,979.00
2023-04-24T04:44:08.554Z,979.03
2023-04-24T04:45:08.481Z,979.04
2023-04-24T04:46:08.411Z,979.10
2023-04-24T04:47:08.309Z,979.06
2023-04-24T04:48:08.224Z,979.10
2023-04-24T04:49:08.307Z,979.07
2023-04-24T04:50:08.059Z,979.07
2023-04-24T04:51:07.977Z,979.03
2023-04-24T04:52:07.888Z,978.99
2023-04-24T04:53:07.813Z,979.08
2023-04-24T04:54:07.726Z,978.96
2023-04-24T04:55:07.641Z,978.99
2023-04-24T04:56:07.563Z,979.02
2023-04-24T04:57:07.498Z,979.02
2023-04-24T04:58:07.400Z,978.99
2023-04-24T04:59:07.338Z,979.02
2023-04-24T05:00:07.234Z,979.05
2023-04-24T05:01:07.173Z,979.13
2023-04-24T05:02:07.296Z,979.10
2023-04-24T05:03:20.110Z,979.11
2023-04-24T05:04:07.071Z,979.11
2023-04-24T05:05:06.905Z,979.12
2023-04-24T05:06:06.750Z,979.15
2023-04-24T05:07:06.662Z,979.15
2023-04-24T05:08:08.986Z,979.17
2023-04-24T05:09:06.499Z,979.17
2023-04-24T05:10:06.481Z,979.16
2023-04-24T05:11:06.334Z,979.16
2023-04-24T05:12:06.261Z,979.17
2023-04-24T05:13:06.168Z,979.21
2023-04-24T05:14:06.090Z,979.20
2023-04-24T05:15:06.003Z,979.19
2023-04-24T05:16:05.923Z,979.23
2023-04-24T05:17:05.901Z,979.27
2023-04-24T05:18:05.792Z,979.33
2023-04-24T05:19:05.697Z,979.34
2023-04-24T05:20:05.594Z,979.40
2023-04-24T05:21:05.529Z,979.38
2023-04-24T05:22:05.428Z,979.41
2023-04-24T05:23:05.348Z,979.45
2023-04-24T05:24:05.267Z,979.41
2023-04-24T05:25:05.188Z,979.42
2023-04-24T05:26:07.359Z,979.50
2023-04-24T05:27:05.019Z,979.46
2023-04-24T05:28:05.050Z,979.56
2023-04-24T05:29:04.866Z,979.55
2023-04-24T05:30:04.793Z,979.67
2023-04-24T05:31:04.726Z,979.63
2023-04-24T05:32:04.612Z,979.70
2023-04-24T05:33:04.595Z,979.64
2023-04-24T05:34:04.454Z,979.70
2023-04-24T05:35:04.363Z,979.65
2023-04-24T05:36:04.282Z,979.62
2023-04-24T05:37:04.228Z,979.65
2023-04-24T05:38:04.428Z,979.72
2023-04-24T05:39:04.304Z,979.65
2023-04-24T05:40:03.961Z,979.73
2023-04-24T05:41:03.874Z,979.68
2023-04-24T05:42:03.791Z,979.69
2023-04-24T05:43:03.713Z,979.66
2023-04-24T05:44:03.634Z,979.64
2023-04-24T05:45:03.556Z,979.62
2023-04-24T05:46:03.512Z,979.64
2023-04-24T05:47:03.384Z,979.72
2023-04-24T05:48:03.344Z,979.72
2023-04-24T05:49:03.220Z,979.67
2023-04-24T05:50:03.152Z,979.74
2023-04-24T05:51:03.062Z,979.69
2023-04-24T05:52:03.078Z,979.68
2023-04-24T05:53:02.952Z,979.74
2023-04-24T05:54:02.810Z,979.72
2023-04-24T05:55:02.730Z,979.71
2023-04-24T05:56:02.693Z,979.71
2023-04-24T05:57:02.567Z,979.79
2023-04-24T05:58:02.486Z,979.71
2023-04-24T05:59:02.413Z,979.74
2023-04-24T06:00:02.352Z,979.80
2023-04-24T06:01:02.266Z,979.79
2023-04-24T06:02:02.188Z,979.78
2023-04-24T06:03:02.360Z,979.84
2023-04-24T06:04:02.528Z,979.86
2023-04-24T06:05:01.997Z,979.75
2023-04-24T06:06:01.844Z,979.80
2023-04-24T06:07:01.755Z,979.76
2023-04-24T06:08:01.689Z,979.78
2023-04-24T06:09:01.618Z,979.78
2023-04-24T06:10:01.513Z,979.80
2023-04-24T06:11:03.917Z,979.79
2023-04-24T06:12:01.349Z,979.73
2023-04-24T06:13:01.385Z,979.73
2023-04-24T06:14:01.200Z,979.71
2023-04-24T06:15:01.156Z,979.67
2023-04-24T06:16:01.050Z,979.65
2023-04-24T06:17:00.981Z,979.65
2023-04-24T06:18:00.891Z,979.69
2023-04-24T06:19:00.780Z,979.67
2023-04-24T06:20:00.851Z,979.74
2023-04-24T06:21:00.619Z,979.71
2023-04-24T06:22:00.537Z,979.70
2023-04-24T06:23:00.470Z,979.67
2023-04-24T06:24:00.388Z,979.70
2023-04-24T06:25:00.409Z,979.76
2023-04-24T06:26:00.217Z,979.69
2023-04-24T06:27:00.160Z,979.72
2023-04-24T06:28:00.062Z,979.75
2023-04-24T06:28:59.972Z,979.75
2023-04-24T06:29:59.893Z,979.75
2023-04-24T06:30:59.836Z,979.78
2023-04-24T06:31:59.770Z,979.85
2023-04-24T06:33:09.217Z,979.82
2023-04-24T06:33:59.567Z,979.90
2023-04-24T06:34:59.704Z,979.94
2023-04-24T06:35:59.458Z,979.97
2023-04-24T06:36:59.672Z,979.94
2023-04-24T06:37:59.244Z,979.96
2023-04-24T06:38:59.211Z,980.01
2023-04-24T06:39:59.121Z,979.98
2023-04-24T06:40:59.148Z,980.00
2023-04-24T06:41:58.919Z,980.00
2023-04-24T06:42:58.838Z,980.02
2023-04-24T06:43:58.755Z,980.14
2023-04-24T06:44:58.678Z,980.05
2023-04-24T06:45:58.600Z,979.99
2023-04-24T06:46:58.511Z,980.05
2023-04-24T06:47:58.503Z,980.05
2023-04-24T06:48:58.366Z,980.06
2023-04-24T06:49:58.278Z,980.16
2023-04-24T06:50:58.190Z,980.05
2023-04-24T06:51:58.157Z,980.08
2023-04-24T06:52:58.021Z,980.09
2023-04-24T06:53:57.948Z,980.05
2023-04-24T06:54:57.867Z,980.06
2023-04-24T06:55:57.782Z,980.05
2023-04-24T06:56:57.802Z,980.08
2023-04-24T06:57:57.621Z,980.11
2023-04-24T06:58:57.534Z,980.11
2023-04-24T06:59:57.463Z,980.11
2023-04-24T07:00:57.421Z,980.06
2023-04-24T07:01:57.345Z,980.16
2023-04-24T07:02:57.811Z,980.14
2023-04-24T07:03:57.275Z,980.17
2023-04-24T07:04:57.058Z,980.16
2023-04-24T07:05:56.972Z,980.15
2023-04-24T07:06:56.953Z,980.27
2023-04-24T07:07:56.811Z,980.25
2023-04-24T07:08:56.752Z,980.18
2023-04-24T07:09:56.646Z,980.33
2023-04-24T07:10:56.569Z,980.31
2023-04-24T07:11:56.485Z,980.28
2023-04-24T07:12:56.438Z,980.29
2023-04-24T07:13:56.324Z,980.35
2023-04-24T07:14:56.242Z,980.35
2023-04-24T07:15:56.207Z,980.40
2023-04-24T07:16:56.084Z,980.35
2023-04-24T07:17:56.072Z,980.34
2023-04-24T07:18:55.920Z,980.39
2023-04-24T07:19:55.842Z,980.40
2023-04-24T07:20:55.762Z,980.43
2023-04-24T07:21:55.682Z,980.36
2023-04-24T07:22:55.602Z,980.48
2023-04-24T07:23:55.541Z,980.34
2023-04-24T07:24:55.446Z,980.40
2023-04-24T07:25:55.364Z,980.42
2023-04-24T07:26:55.281Z,980.40
2023-04-24T07:27:55.200Z,980.40
2023-04-24T07:28:55.148Z,980.34
2023-04-24T07:29:55.043Z,980.37
2023-04-24T07:30:55.114Z,980.37
2023-04-24T07:31:54.929Z,980.42
2023-04-24T07:32:54.841Z,980.38
2023-04-24T07:33:54.723Z,980.38
2023-04-24T07:34:54.642Z,980.42
2023-04-24T07:35:54.563Z,980.34
2023-04-24T07:36:54.483Z,980.37
2023-04-24T07:37:54.403Z,980.54
2023-04-24T07:38:54.474Z,980.38
2023-04-24T07:39:54.266Z,980.42
2023-04-24T07:40:54.169Z,980.37
2023-04-24T07:41:54.083Z,980.42
2023-04-24T07:42:54.098Z,980.40
2023-04-24T07:43:53.936Z,980.47
2023-04-24T07:44:53.861Z,980.44
2023-04-24T07:45:53.799Z,980.44
2023-04-24T07:46:53.758Z,980.50
2023-04-24T07:47:53.630Z,980.53
2023-04-24T07:49:05.392Z,980.44
2023-04-24T07:49:53.458Z,980.49
2023-04-24T07:50:53.363Z,980.59
2023-04-24T07:51:53.281Z,980.46
2023-04-24T07:52:53.208Z,980.45
2023-04-24T07:53:53.122Z,980.44
2023-04-24T07:54:53.041Z,980.41
2023-04-24T07:55:52.958Z,980.49
2023-04-24T07:56:52.903Z,980.49
2023-04-24T07:57:52.810Z,980.42
2023-04-24T07:58:52.717Z,980.41
2023-04-24T07:59:52.650Z,980.45
2023-04-24T08:00:52.626Z,980.47
2023-04-24T08:01:52.488Z,980.54
2023-04-24T08:02:52.543Z,980.53
2023-04-24T08:03:52.499Z,980.48
2023-04-24T08:04:52.519Z,980.41
2023-04-24T08:05:52.258Z,980.46
2023-04-24T08:06:52.076Z,980.43
2023-04-24T08:07:51.995Z,980.56
2023-04-24T08:08:51.929Z,980.63
2023-04-24T08:09:51.845Z,980.60
2023-04-24T08:10:51.769Z,980.57
2023-04-24T08:11:51.684Z,980.57
2023-04-24T08:12:51.617Z,980.65
2023-04-24T08:13:51.528Z,980.59
2023-04-24T08:14:51.447Z,980.58
2023-04-24T08:15:51.436Z,980.69
2023-04-24T08:16:51.309Z,980.67
2023-04-24T08:17:51.231Z,980.65
2023-04-24T08:18:51.218Z,980.66
2023-04-24T08:19:51.037Z,980.64
2023-04-24T08:20:50.957Z,980.61
2023-04-24T08:21:51.181Z,980.64
2023-04-24T08:22:51.143Z,980.72
2023-04-24T08:23:50.714Z,980.62
2023-04-24T08:24:50.654Z,980.66
2023-04-24T08:25:50.564Z,980.66
2023-04-24T08:26:50.520Z,980.70
2023-04-24T08:27:50.399Z,980.76
2023-04-24T08:28:50.321Z,980.76
2023-04-24T08:29:50.238Z,980.83
2023-04-24T08:30:50.312Z,980.88
2023-04-24T08:31:50.132Z,980.90
2023-04-24T08:32:50.227Z,980.87
2023-04-24T08:33:49.938Z,980.87
2023-04-24T08:34:50.106Z,980.87
2023-04-24T08:35:49.763Z,980.86
2023-04-24T08:36:49.680Z,980.84
2023-04-24T08:37:49.598Z,980.92
2023-04-24T08:38:49.519Z,980.98
2023-04-24T08:39:49.438Z,981.09
2023-04-24T08:40:49.363Z,981.01
2023-04-24T08:41:49.278Z,981.01
2023-04-24T08:42:49.802Z,981.06
2023-04-24T08:43:49.463Z,981.04
2023-04-24T08:44:49.036Z,981.00
2023-04-24T08:45:48.986Z,981.06
2023-04-24T08:46:49.497Z,981.07
2023-04-24T08:47:48.853Z,981.03
2023-04-24T08:48:48.742Z,981.08
2023-04-24T08:49:48.639Z,981.10
2023-04-24T08:50:48.572Z,981.03
2023-04-24T08:51:48.472Z,981.05
2023-04-24T08:52:48.401Z,981.03
2023-04-24T08:53:48.332Z,981.10
2023-04-24T08:54:48.236Z,981.07
2023-04-24T08:55:48.162Z,981.06
2023-04-24T08:56:48.079Z,981.04
2023-04-24T08:57:47.995Z,981.08
2023-04-24T08:58:47.916Z,981.08
2023-04-24T08:59:47.881Z,981.11
2023-04-24T09:00:47.781Z,980.98
2023-04-24T09:01:47.820Z,981.02
2023-04-24T09:02:47.781Z,981.05
2023-04-24T09:03:47.565Z,981.01
2023-04-24T09:04:47.562Z,981.16
2023-04-24T09:05:47.460Z,981.09
2023-04-24T09:06:47.723Z,981.10
2023-04-24T09:07:47.218Z,981.19
2023-04-24T09:08:47.167Z,981.14
2023-04-24T09:09:47.041Z,981.13
2023-04-24T09:10:49.107Z,981.20
2023-04-24T09:11:46.939Z,981.16
2023-04-24T09:12:47.345Z,981.16
2023-04-24T09:13:46.710Z,981.21
2023-04-24T09:14:46.747Z,981.20
2023-04-24T09:15:46.556Z,981.22
2023-04-24T09:16:46.546Z,981.19
2023-04-24T09:17:46.464Z,981.26
2023-04-24T09:18:46.315Z,981.26
2023-04-24T09:19:46.240Z,981.18
2023-04-24T09:20:46.175Z,981.26
2023-04-24T09:21:46.072Z,981.31
2023-04-24T09:22:46.349Z,981.25
2023-04-24T09:23:45.956Z,981.27
2023-04-24T09:24:45.837Z,981.32
2023-04-24T09:25:45.760Z,981.33
2023-04-24T09:26:45.725Z,981.30
2023-04-24T09:27:45.605Z,981.39
2023-04-24T09:28:45.518Z,981.37
2023-04-24T09:29:45.757Z,981.44
2023-04-24T09:30:45.359Z,981.42
2023-04-24T09:31:45.308Z,981.47
2023-04-24T09:32:45.586Z,981.44
2023-04-24T09:33:45.122Z,981.53
2023-04-24T09:34:45.040Z,981.55
2023-04-24T09:35:44.978Z,981.49
2023-04-24T09:36:44.897Z,981.56
2023-04-24T09:37:44.826Z,981.53
2023-04-24T09:38:44.721Z,981.63
2023-04-24T09:39:45.052Z,981.66
2023-04-24T09:40:44.576Z,981.59
2023-04-24T09:41:44.478Z,981.69
2023-04-24T09:42:44.401Z,981.64
2023-04-24T09:43:44.322Z,981.69
2023-04-24T09:44:44.469Z,981.67
2023-04-24T09:45:44.250Z,981.61
2023-04-24T09:46:44.182Z,981.67
2023-04-24T09:47:44.112Z,981.71
2023-04-24T09:48:44.025Z,981.67
2023-04-24T09:49:44.393Z,981.79
2023-04-24T09:50:43.763Z,981.76
2023-04-24T09:51:43.690Z,981.75
2023-04-24T09:52:43.633Z,981.79
2023-04-24T09:53:43.532Z,981.78
2023-04-24T09:54:43.443Z,981.76
2023-04-24T09:55:43.366Z,981.74
2023-04-24T09:56:43.344Z,981.91
2023-04-24T09:57:43.208Z,981.81
2023-04-24T09:58:43.126Z,981.75
2023-04-24T09:59:43.347Z,981.89
2023-04-24T10:00:42.970Z,981.80
2023-04-24T10:01:42.917Z,981.93
2023-04-24T10:02:42.999Z,981.75
2023-04-24T10:03:43.068Z,981.86
2023-04-24T10:04:42.687Z,981.68
2023-04-24T10:05:42.567Z,981.87
2023-04-24T10:06:42.488Z,981.90
2023-04-24T10:07:42.414Z,981.88
2023-04-24T10:08:42.350Z,981.82
2023-04-24T10:09:42.394Z,981.86
2023-04-24T10:10:42.188Z,981.89
2023-04-24T10:11:42.095Z,981.96
2023-04-24T10:12:42.008Z,981.93
2023-04-24T10:13:41.932Z,981.95
2023-04-24T10:14:43.959Z,981.97
2023-04-24T10:15:41.808Z,982.01
2023-04-24T10:16:41.689Z,982.02
2023-04-24T10:17:41.973Z,981.86
2023-04-24T10:18:41.528Z,981.96
2023-04-24T10:19:41.588Z,981.90
2023-04-24T10:20:41.413Z,981.90
2023-04-24T10:21:41.292Z,981.93
2023-04-24T10:22:41.209Z,981.96
2023-04-24T10:23:41.132Z,981.96
2023-04-24T10:24:41.438Z,981.97
2023-04-24T10:25:41.319Z,982.00
2023-04-24T10:26:40.988Z,981.96
2023-04-24T10:27:40.808Z,982.02
2023-04-24T10:28:40.829Z,982.06
2023-04-24T10:29:40.648Z,982.06
2023-04-24T10:33:06.234Z,982.13
2023-04-24T10:35:04.112Z,982.13
2023-04-24T10:36:04.128Z,982.14
2023-04-24T10:37:03.951Z,982.16
2023-04-24T10:38:03.872Z,982.27
2023-04-24T10:39:03.801Z,982.18
2023-04-24T10:40:03.728Z,982.24
2023-04-24T10:41:03.640Z,982.20
2023-04-24T10:42:03.550Z,982.42
2023-04-24T10:43:03.472Z,982.28
2023-04-24T10:44:03.399Z,982.22
2023-04-24T10:45:03.309Z,982.33
2023-04-24T10:46:03.223Z,982.33
2023-04-24T10:47:03.166Z,982.35
2023-04-24T10:48:05.812Z,982.30
2023-04-24T10:49:02.985Z,982.28
2023-04-24T10:50:03.219Z,982.26
2023-04-24T10:51:02.867Z,982.24
2023-04-24T10:52:02.764Z,982.20
2023-04-24T11:05:47.320Z,982.24
2023-04-24T11:06:47.123Z,982.31
2023-04-24T11:07:47.046Z,982.27
2023-04-24T11:08:46.964Z,982.32
2023-04-24T11:09:46.884Z,982.26
2023-04-24T11:10:46.804Z,982.30
2023-04-24T11:11:46.724Z,982.36
2023-04-24T11:12:46.640Z,982.26
2023-04-24T11:13:46.558Z,982.27
2023-04-24T11:14:46.526Z,982.30
2023-04-24T11:15:46.399Z,982.29
2023-04-24T11:16:46.344Z,982.32
2023-04-24T11:17:46.471Z,982.28
2023-04-24T11:18:46.194Z,982.31
2023-04-24T11:19:46.079Z,982.24
2023-04-24T11:23:46.768Z,982.21
2023-04-24T11:24:46.917Z,982.18
2023-04-24T11:25:46.538Z,982.18
2023-04-24T11:29:12.095Z,982.17
2023-04-24T11:30:12.021Z,982.23
2023-04-24T11:31:11.937Z,982.16
2023-04-24T11:32:11.959Z,982.21
2023-04-24T11:33:11.863Z,982.22
2023-04-24T11:34:11.699Z,982.25
2023-04-24T11:35:11.626Z,982.25
2023-04-24T11:36:11.534Z,982.22
2023-04-24T11:37:11.471Z,982.25
2023-04-24T11:38:23.475Z,982.22
2023-04-24T11:39:11.488Z,982.24
2023-04-24T11:40:11.226Z,982.29
2023-04-24T11:41:11.190Z,982.21
2023-04-24T11:42:15.102Z,982.20
2023-04-24T11:43:10.988Z,982.25
2023-04-24T11:44:10.909Z,982.25
2023-04-24T11:45:10.835Z,982.23
2023-04-24T11:46:10.776Z,982.29
2023-04-24T11:47:10.674Z,982.23
2023-04-24T11:48:10.619Z,982.20
2023-04-24T11:49:10.522Z,982.30
2023-04-24T11:50:10.495Z,982.26
2023-04-24T11:51:10.362Z,982.27
2023-04-24T11:52:10.295Z,982.35
2023-04-24T11:53:10.207Z,982.35
2023-04-24T11:54:10.323Z,982.36
2023-04-24T11:55:10.071Z,982.32
2023-04-24T11:56:09.982Z,982.39
2023-04-24T11:57:09.889Z,982.40
2023-04-24T11:58:09.810Z,982.39
2023-04-24T11:59:09.734Z,982.46
2023-04-24T12:00:09.985Z,982.42
2023-04-24T12:01:09.578Z,982.44
2023-04-24T12:02:09.609Z,982.46
2023-04-24T12:03:09.636Z,982.39
2023-04-24T12:04:09.515Z,982.48
2023-04-24T12:05:09.629Z,982.51
2023-04-24T12:06:09.412Z,982.46
2023-04-24T12:07:09.099Z,982.53
2023-04-24T12:08:09.053Z,982.53
2023-04-24T12:09:17.928Z,982.52
2023-04-24T12:10:09.011Z,982.50
2023-04-24T12:11:08.816Z,982.49
2023-04-24T12:12:09.162Z,982.49
2023-04-24T12:13:08.622Z,982.55
2023-04-24T12:14:08.593Z,982.50
2023-04-24T13:52:43.110Z,982.88
2023-04-24T13:53:43.541Z,983.02
2023-04-24T13:54:42.929Z,983.09
2023-04-24T13:56:25.354Z,982.95
2023-04-24T13:57:25.261Z,983.01
2023-04-24T13:58:25.190Z,982.97
2023-04-24T13:59:25.112Z,982.93
2023-04-24T14:00:25.044Z,982.91
2023-04-24T14:01:25.391Z,982.92
2023-04-24T14:02:24.996Z,982.96
2023-04-24T14:03:24.947Z,982.84
2023-04-24T14:04:25.179Z,982.93
2023-04-24T14:05:24.650Z,982.82
2023-04-24T14:06:24.586Z,982.93
2023-04-24T14:07:24.483Z,982.97
2023-04-24T14:08:24.430Z,983.13
2023-04-24T14:09:26.952Z,983.39
2023-04-24T14:10:24.271Z,983.19
2023-04-24T14:11:24.177Z,983.04
2023-04-24T14:12:24.370Z,983.05
2023-04-24T14:13:25.455Z,983.06
2023-04-24T14:14:23.944Z,983.05
2023-04-24T14:15:23.867Z,983.12
2023-04-24T14:17:24.966Z,983.24
2023-04-24T14:18:23.647Z,982.99
2023-04-24T14:19:23.563Z,982.93
2023-04-24T14:20:26.109Z,982.94
2023-04-24T14:21:23.418Z,983.02
2023-04-24T14:22:23.339Z,982.95
2023-04-24T14:23:23.265Z,982.88
2023-04-24T14:24:23.218Z,983.12
2023-04-24T14:25:23.123Z,982.96
2023-04-24T14:26:23.040Z,982.99
2023-04-24T14:27:22.965Z,983.00
2023-04-24T14:28:23.090Z,982.94
2023-04-24T14:29:22.814Z,982.99
2023-04-24T14:30:22.743Z,983.02
2023-04-24T14:31:22.720Z,983.18
2023-04-24T14:32:22.722Z,982.99
2023-04-24T14:33:22.526Z,982.98
2023-04-24T14:34:22.444Z,982.87
2023-04-24T14:35:22.411Z,982.91
2023-04-24T14:36:22.290Z,982.92
2023-04-24T14:37:22.230Z,982.91
2023-04-24T14:38:22.138Z,982.89
2023-04-24T14:39:22.069Z,982.94
2023-04-24T14:40:52.385Z,982.98
2023-04-24T14:41:21.912Z,982.94
2023-04-24T14:42:22.032Z,982.91
2023-04-24T14:43:21.759Z,982.94
2023-04-24T14:44:21.692Z,982.93
2023-04-24T14:45:21.652Z,982.89
2023-04-24T14:46:21.577Z,982.92
2023-04-24T14:47:21.484Z,982.90
2023-04-24T14:48:21.372Z,982.88
2023-04-24T14:49:21.498Z,982.91
2023-04-24T14:50:23.005Z,982.90
2023-04-24T14:51:21.144Z,982.91
2023-04-24T14:52:21.077Z,982.84
2023-04-24T14:53:20.990Z,982.85
2023-04-24T14:54:20.922Z,982.88
2023-04-24T14:55:20.835Z,982.88
2023-04-24T14:56:20.789Z,982.85
2023-04-24T14:57:20.922Z,982.86
2023-04-24T14:58:20.608Z,982.87
2023-04-24T14:59:21.333Z,982.95
2023-04-24T15:00:20.452Z,982.88
2023-04-24T15:01:20.429Z,982.94
2023-04-24T15:02:22.187Z,982.92
2023-04-24T15:03:20.468Z,982.91
2023-04-24T15:04:20.304Z,982.94
2023-04-24T15:05:20.366Z,982.98
2023-04-24T15:06:19.997Z,983.04
2023-04-24T15:07:19.907Z,982.99
2023-04-24T15:08:20.030Z,983.03
2023-04-24T15:09:19.756Z,982.99
2023-04-24T15:10:19.676Z,983.09
2023-04-24T15:11:19.597Z,983.01
2023-04-24T15:12:19.545Z,982.96
2023-04-24T15:13:19.449Z,982.86
2023-04-24T15:14:19.718Z,982.99
2023-04-24T15:15:19.299Z,983.04
2023-04-24T15:16:19.232Z,982.92
2023-04-24T15:17:19.148Z,983.00
2023-04-24T15:18:19.061Z,982.86
2023-04-24T15:21:44.622Z,982.93
2023-04-24T15:24:12.066Z,982.98
2023-04-24T15:25:11.969Z,982.99
2023-04-24T15:26:11.892Z,982.95
2023-04-24T15:27:11.817Z,982.90
2023-04-24T15:28:11.765Z,982.93
2023-04-24T15:29:11.664Z,982.92
2023-04-24T15:30:11.607Z,982.89
2023-04-24T15:31:11.500Z,982.92
2023-04-24T15:32:11.867Z,982.88
2023-04-24T15:33:11.469Z,982.94
2023-04-24T15:35:04.865Z,982.92
2023-04-24T15:35:53.696Z,982.90
2023-04-24T15:36:53.594Z,982.92
2023-04-24T15:37:53.506Z,982.88
2023-04-24T15:38:53.431Z,982.86
2023-04-24T15:39:53.348Z,982.84
2023-04-24T15:40:53.270Z,982.90
2023-04-24T15:41:53.190Z,982.89
2023-04-24T15:42:53.122Z,982.87
2023-04-24T15:43:53.049Z,982.89
2023-04-24T15:44:52.951Z,982.96
2023-04-24T15:45:52.896Z,982.89
2023-04-24T15:46:52.806Z,982.85
2023-04-24T15:47:52.746Z,982.93
2023-04-24T15:48:52.700Z,983.01
2023-04-24T15:49:52.571Z,983.04
2023-04-24T15:50:52.482Z,983.12
2023-04-24T15:51:52.414Z,983.15
2023-04-24T15:52:52.322Z,983.12
2023-04-24T15:53:52.242Z,983.07
2023-04-24T15:54:52.165Z,983.12
2023-04-24T15:55:52.118Z,983.03
2023-04-24T15:56:52.012Z,983.13
2023-04-24T15:57:51.950Z,983.11
2023-04-24T15:58:52.202Z,983.07
2023-04-24T15:59:51.814Z,983.16
2023-04-24T16:00:51.756Z,983.03
2023-04-24T16:01:51.674Z,983.02
2023-04-24T16:02:51.673Z,983.11
2023-04-24T16:03:51.591Z,983.17
2023-04-24T16:04:51.586Z,983.06
2023-04-24T16:05:51.335Z,982.98
2023-04-24T16:06:51.259Z,982.99
2023-04-24T16:08:38.974Z,983.04
2023-04-24T16:09:38.602Z,982.96
2023-04-24T16:10:38.547Z,982.96
2023-04-24T16:11:38.907Z,982.96
2023-04-24T16:12:38.384Z,982.98
2023-04-24T16:13:38.307Z,982.99
2023-04-24T16:14:38.289Z,983.03
2023-04-24T16:15:38.205Z,982.95
2023-04-24T16:16:38.137Z,983.03
2023-04-24T16:17:38.157Z,983.01
2023-04-24T16:18:37.928Z,982.97
2023-04-24T16:19:37.852Z,983.08
2023-04-24T16:20:37.777Z,983.24
2023-04-24T16:21:37.710Z,983.28
2023-04-24T16:22:37.626Z,983.27
2023-04-24T16:23:37.549Z,983.24
2023-04-24T16:24:37.477Z,983.13
2023-04-24T16:25:37.411Z,983.29
2023-04-24T16:26:37.326Z,983.29
2023-04-24T16:27:37.249Z,983.26
2023-04-24T16:28:37.177Z,983.33
2023-04-24T16:29:37.103Z,983.32
2023-04-24T16:30:37.035Z,983.24
2023-04-24T16:31:37.037Z,983.18
2023-04-24T16:32:36.985Z,983.17
2023-04-24T16:33:36.799Z,983.21
2023-04-24T16:34:36.729Z,983.18
2023-04-24T16:35:36.648Z,983.12
2023-04-24T16:36:36.829Z,983.09
2023-04-24T16:37:36.705Z,983.15
2023-04-24T16:38:36.424Z,983.11
2023-04-24T16:39:36.349Z,983.11
2023-04-24T16:40:36.276Z,983.16
2023-04-24T16:41:36.198Z,983.12
2023-04-24T16:43:53.639Z,983.13
2023-04-24T16:44:53.650Z,983.13
2023-04-24T16:45:53.474Z,983.08
2023-04-24T16:46:53.468Z,983.07
2023-04-24T16:49:33.296Z,983.07
2023-04-24T16:50:33.219Z,983.01
2023-04-24T16:51:33.141Z,983.00
2023-04-24T16:52:33.132Z,983.03
2023-04-24T16:53:32.991Z,983.02
2023-04-24T16:54:32.911Z,983.04
2023-04-24T16:55:32.833Z,983.02
2023-04-24T16:56:32.754Z,982.97
2023-04-24T17:06:50.954Z,983.06
2023-04-24T17:07:50.854Z,983.06
2023-04-24T17:08:50.884Z,983.06
2023-04-24T17:09:50.705Z,983.09
2023-04-24T17:10:50.626Z,983.05
2023-04-24T17:11:53.159Z,983.02
2023-04-24T17:12:50.462Z,983.03
2023-04-24T17:13:50.565Z,982.96
2023-04-24T17:14:50.325Z,983.01
2023-04-24T17:15:50.230Z,982.99
2023-04-24T17:16:50.167Z,983.02
2023-04-24T17:17:50.092Z,983.00
2023-04-24T17:18:50.285Z,983.01
2023-04-24T17:19:49.916Z,982.98
2023-04-24T17:20:51.386Z,982.93
2023-04-24T17:21:49.756Z,982.99
2023-04-24T17:22:49.720Z,982.96
2023-04-24T17:23:49.601Z,983.00
2023-04-24T17:24:49.522Z,983.03
2023-04-24T17:25:49.443Z,983.02
2023-04-24T17:26:49.362Z,983.06
2023-04-24T17:27:49.295Z,983.11
2023-04-24T17:29:49.130Z,983.14
2023-04-24T17:30:49.054Z,983.11
2023-04-24T17:31:48.999Z,983.13
2023-04-24T17:32:48.911Z,983.12
2023-04-24T17:33:48.810Z,983.14
2023-04-24T17:34:48.734Z,983.12
2023-04-24T17:35:48.654Z,983.18
2023-04-24T17:36:48.597Z,983.18
2023-04-24T17:37:48.698Z,983.14
2023-04-24T17:38:48.680Z,983.19
2023-04-24T17:39:48.340Z,983.15
2023-04-24T17:40:48.256Z,983.17
2023-04-24T17:41:48.183Z,983.15
2023-04-24T17:42:48.100Z,983.12
2023-04-24T17:43:48.019Z,983.16
2023-04-24T17:44:47.941Z,983.17
2023-04-24T17:45:47.972Z,983.15
2023-04-24T17:46:47.786Z,983.15
2023-04-24T17:47:47.764Z,983.09
2023-04-24T17:48:49.523Z,983.11
2023-04-24T17:49:47.553Z,983.11
2023-04-24T17:50:47.490Z,983.11
2023-04-24T17:51:47.395Z,983.11
2023-04-24T17:52:47.310Z,983.12
2023-04-24T17:53:47.227Z,983.13
2023-04-24T17:54:47.166Z,983.14
2023-04-24T17:55:47.070Z,983.12
2023-04-24T17:56:46.993Z,983.15
2023-04-24T17:57:46.920Z,983.16
2023-04-24T17:58:47.399Z,983.14
2023-04-24T17:59:46.758Z,983.20
2023-04-24T18:00:46.672Z,983.14
2023-04-24T18:01:46.618Z,983.16
2023-04-24T18:02:46.658Z,983.22
2023-04-24T18:03:46.520Z,983.21
2023-04-24T18:04:46.505Z,983.21
2023-04-24T18:05:46.290Z,983.23
2023-04-24T18:06:46.195Z,983.24
2023-04-24T18:07:46.122Z,983.25
2023-04-24T18:08:46.217Z,983.29
2023-04-24T18:09:45.959Z,983.25
2023-04-24T18:14:06.573Z,983.31
2023-04-24T18:15:14.357Z,983.32
2023-04-24T18:16:06.399Z,983.32
2023-04-24T18:17:06.301Z,983.30
2023-04-24T18:18:06.227Z,983.34
2023-04-24T18:19:06.142Z,983.28
2023-04-24T18:20:06.101Z,983.34
2023-04-24T18:21:06.620Z,983.34
2023-04-24T18:25:06.708Z,983.42
2023-04-24T18:40:04.705Z,983.57
2023-04-24T18:48:03.893Z,983.76
2023-04-24T18:49:03.762Z,983.78
2023-04-24T18:50:03.655Z,983.79
2023-04-24T18:51:03.578Z,983.84
2023-04-24T18:52:04.003Z,983.82
2023-04-24T18:53:03.417Z,983.81
2023-04-24T18:54:03.333Z,983.81
2023-04-24T18:55:03.263Z,983.82
2023-04-24T18:56:03.621Z,983.88
2023-04-24T18:57:03.090Z,983.87
2023-04-24T18:58:03.008Z,983.85
2023-04-24T18:59:02.928Z,983.85
2023-04-24T19:00:04.061Z,983.87
2023-04-24T19:01:02.947Z,983.88
2023-04-24T19:02:02.713Z,983.85
2023-04-24T19:03:02.746Z,983.80
2023-04-24T19:04:02.615Z,983.84
2023-04-24T19:05:02.456Z,983.82
2023-04-24T19:06:02.370Z,983.81
2023-04-24T19:07:02.284Z,983.79
2023-04-24T19:08:02.267Z,983.78
2023-04-24T19:09:02.137Z,983.80
2023-04-24T19:10:02.032Z,983.74
2023-04-24T19:11:01.950Z,983.78
2023-04-24T19:12:01.923Z,983.79
2023-04-24T19:13:01.795Z,983.79
2023-04-24T19:14:01.710Z,983.78
2023-04-24T19:15:01.641Z,983.81
2023-04-24T19:16:01.581Z,983.83
2023-04-24T19:17:01.465Z,983.80
2023-04-24T19:18:01.482Z,983.82
2023-04-24T19:19:02.655Z,983.81
2023-04-24T19:20:01.218Z,983.88
2023-04-24T19:21:01.136Z,983.82
2023-04-24T19:22:01.111Z,983.83
2023-04-24T19:23:00.974Z,983.85
2023-04-24T19:24:00.923Z,983.83
2023-04-24T19:25:00.812Z,983.82
2023-04-24T19:26:00.736Z,983.85
2023-04-24T19:27:00.655Z,983.85
2023-04-24T19:28:00.909Z,983.91
2023-04-24T19:29:00.494Z,983.85
2023-04-24T19:40:53.867Z,983.81
2023-04-24T19:41:53.759Z,983.82
2023-04-24T19:42:53.679Z,983.82